sensor_id;sensor_type;location;lat;lon;timestamp;P1;durP1;ratioP1;P2;durP2;ratioP2
22205;SDS011;11272;50.104;8.754;2023-02-01T00:01:59;6.27;;;3.37;;
22205;SDS011;11272;50.104;8.754;2023-02-01T00:04:25;5.77;;;3.70;;
22205;SDS011;11272;50.104;8.754;2023-02-01T00:06:51;11.23;;;3.90;;
22205;SDS011;11272;50.104;8.754;2023-02-01T00:09:16;5.30;;;3.50;;
22205;SDS011;11272;50.104;8.754;2023-02-01T00:11:42;8.57;;;3.50;;
22205;SDS011;11272;50.104;8.754;2023-02-01T00:14:07;7.10;;;3.83;;
22205;SDS011;11272;50.104;8.754;2023-02-01T00:16:33;8.20;;;3.43;;
22205;SDS011;11272;50.104;8.754;2023-02-01T00:21:27;6.03;;;3.60;;
22205;SDS011;11272;50.104;8.754;2023-02-01T00:23:53;5.80;;;3.43;;
22205;SDS011;11272;50.104;8.754;2023-02-01T00:26:19;6.60;;;3.73;;
22205;SDS011;11272;50.104;8.754;2023-02-01T00:28:49;6.60;;;3.57;;
22205;SDS011;11272;50.104;8.754;2023-02-01T00:31:15;5.77;;;3.43;;
22205;SDS011;11272;50.104;8.754;2023-02-01T00:33:41;6.27;;;3.70;;
22205;SDS011;11272;50.104;8.754;2023-02-01T00:36:07;7.00;;;3.77;;
22205;SDS011;11272;50.104;8.754;2023-02-01T00:38:34;6.67;;;3.50;;
22205;SDS011;11272;50.104;8.754;2023-02-01T00:43:47;5.67;;;2.50;;
22205;SDS011;11272;50.104;8.754;2023-02-01T00:46:14;6.13;;;3.50;;
22205;SDS011;11272;50.104;8.754;2023-02-01T00:48:40;5.97;;;2.53;;
22205;SDS011;11272;50.104;8.754;2023-02-01T00:51:07;4.23;;;2.77;;
22205;SDS011;11272;50.104;8.754;2023-02-01T00:53:35;4.97;;;3.27;;
22205;SDS011;11272;50.104;8.754;2023-02-01T00:56:01;4.67;;;3.40;;
22205;SDS011;11272;50.104;8.754;2023-02-01T00:58:28;8.83;;;3.40;;
22205;SDS011;11272;50.104;8.754;2023-02-01T01:01:27;4.23;;;3.30;;
22205;SDS011;11272;50.104;8.754;2023-02-01T01:03:51;4.60;;;3.07;;
22205;SDS011;11272;50.104;8.754;2023-02-01T01:06:20;5.27;;;3.63;;
22205;SDS011;11272;50.104;8.754;2023-02-01T01:08:52;7.40;;;3.67;;
22205;SDS011;11272;50.104;8.754;2023-02-01T01:11:21;4.70;;;3.47;;
22205;SDS011;11272;50.104;8.754;2023-02-01T01:13:49;7.47;;;3.83;;
22205;SDS011;11272;50.104;8.754;2023-02-01T01:16:16;5.20;;;3.77;;
22205;SDS011;11272;50.104;8.754;2023-02-01T01:18:42;6.37;;;3.70;;
22205;SDS011;11272;50.104;8.754;2023-02-01T01:21:09;5.67;;;3.83;;
22205;SDS011;11272;50.104;8.754;2023-02-01T01:23:36;6.53;;;4.07;;
22205;SDS011;11272;50.104;8.754;2023-02-01T01:26:05;10.97;;;4.17;;
22205;SDS011;11272;50.104;8.754;2023-02-01T01:28:32;6.97;;;4.40;;
22205;SDS011;11272;50.104;8.754;2023-02-01T01:30:58;5.57;;;4.17;;
22205;SDS011;11272;50.104;8.754;2023-02-01T01:33:23;7.80;;;4.07;;
22205;SDS011;11272;50.104;8.754;2023-02-01T01:35:49;7.17;;;3.93;;
22205;SDS011;11272;50.104;8.754;2023-02-01T01:38:15;7.13;;;4.30;;
22205;SDS011;11272;50.104;8.754;2023-02-01T01:40:44;8.33;;;4.07;;
22205;SDS011;11272;50.104;8.754;2023-02-01T01:43:14;6.00;;;4.07;;
22205;SDS011;11272;50.104;8.754;2023-02-01T01:45:48;6.67;;;3.50;;
22205;SDS011;11272;50.104;8.754;2023-02-01T01:51:00;8.87;;;4.50;;
22205;SDS011;11272;50.104;8.754;2023-02-01T01:53:32;4.83;;;3.63;;
22205;SDS011;11272;50.104;8.754;2023-02-01T01:56:01;6.03;;;3.27;;
22205;SDS011;11272;50.104;8.754;2023-02-01T01:58:27;6.47;;;4.30;;
22205;SDS011;11272;50.104;8.754;2023-02-01T02:00:57;6.37;;;4.10;;
22205;SDS011;11272;50.104;8.754;2023-02-01T02:03:24;8.70;;;4.90;;
22205;SDS011;11272;50.104;8.754;2023-02-01T02:05:53;9.53;;;4.10;;
22205;SDS011;11272;50.104;8.754;2023-02-01T02:08:23;7.30;;;4.43;;
22205;SDS011;11272;50.104;8.754;2023-02-01T02:10:51;8.47;;;4.70;;
22205;SDS011;11272;50.104;8.754;2023-02-01T02:13:40;7.13;;;4.40;;
22205;SDS011;11272;50.104;8.754;2023-02-01T02:24:54;7.00;;;4.70;;
22205;SDS011;11272;50.104;8.754;2023-02-01T02:27:59;8.67;;;4.97;;
22205;SDS011;11272;50.104;8.754;2023-02-01T02:36:29;8.73;;;4.73;;
22205;SDS011;11272;50.104;8.754;2023-02-01T02:39:07;8.33;;;4.90;;
22205;SDS011;11272;50.104;8.754;2023-02-01T02:41:45;10.53;;;5.00;;
22205;SDS011;11272;50.104;8.754;2023-02-01T02:50:38;8.67;;;5.10;;
22205;SDS011;11272;50.104;8.754;2023-02-01T02:56:39;6.27;;;4.03;;
22205;SDS011;11272;50.104;8.754;2023-02-01T02:59:25;7.27;;;4.30;;
22205;SDS011;11272;50.104;8.754;2023-02-01T03:02:13;8.50;;;4.37;;
22205;SDS011;11272;50.104;8.754;2023-02-01T03:04:58;11.93;;;4.30;;
22205;SDS011;11272;50.104;8.754;2023-02-01T03:16:17;8.87;;;4.33;;
22205;SDS011;11272;50.104;8.754;2023-02-01T03:18:50;8.53;;;4.30;;
22205;SDS011;11272;50.104;8.754;2023-02-01T03:21:22;7.30;;;3.97;;
22205;SDS011;11272;50.104;8.754;2023-02-01T03:23:51;9.10;;;4.20;;
22205;SDS011;11272;50.104;8.754;2023-02-01T03:26:20;11.33;;;4.70;;
22205;SDS011;11272;50.104;8.754;2023-02-01T03:28:54;12.37;;;4.77;;
22205;SDS011;11272;50.104;8.754;2023-02-01T03:31:24;8.77;;;4.33;;
22205;SDS011;11272;50.104;8.754;2023-02-01T03:33:50;9.10;;;4.17;;
22205;SDS011;11272;50.104;8.754;2023-02-01T03:36:26;11.53;;;4.20;;
22205;SDS011;11272;50.104;8.754;2023-02-01T03:39:03;8.90;;;4.23;;
22205;SDS011;11272;50.104;8.754;2023-02-01T03:41:47;6.53;;;4.10;;
22205;SDS011;11272;50.104;8.754;2023-02-01T03:44:22;10.67;;;3.83;;
22205;SDS011;11272;50.104;8.754;2023-02-01T03:49:46;4.20;;;2.23;;
22205;SDS011;11272;50.104;8.754;2023-02-01T03:52:21;7.43;;;3.50;;
22205;SDS011;11272;50.104;8.754;2023-02-01T03:54:50;6.40;;;3.67;;
22205;SDS011;11272;50.104;8.754;2023-02-01T03:57:20;6.63;;;3.37;;
22205;SDS011;11272;50.104;8.754;2023-02-01T03:59:51;6.30;;;3.40;;
22205;SDS011;11272;50.104;8.754;2023-02-01T04:02:17;4.93;;;3.13;;
22205;SDS011;11272;50.104;8.754;2023-02-01T04:04:43;7.47;;;3.10;;
22205;SDS011;11272;50.104;8.754;2023-02-01T04:07:10;4.87;;;2.93;;
22205;SDS011;11272;50.104;8.754;2023-02-01T04:09:36;4.73;;;3.27;;
22205;SDS011;11272;50.104;8.754;2023-02-01T04:12:01;4.53;;;3.03;;
22205;SDS011;11272;50.104;8.754;2023-02-01T04:14:28;8.23;;;3.60;;
22205;SDS011;11272;50.104;8.754;2023-02-01T04:16:54;7.47;;;3.43;;
22205;SDS011;11272;50.104;8.754;2023-02-01T04:19:19;6.60;;;3.80;;
22205;SDS011;11272;50.104;8.754;2023-02-01T04:21:45;5.87;;;3.93;;
22205;SDS011;11272;50.104;8.754;2023-02-01T04:24:10;4.90;;;3.27;;
22205;SDS011;11272;50.104;8.754;2023-02-01T04:26:36;6.47;;;4.00;;
22205;SDS011;11272;50.104;8.754;2023-02-01T04:29:01;7.73;;;4.43;;
22205;SDS011;11272;50.104;8.754;2023-02-01T04:31:27;7.50;;;4.13;;
22205;SDS011;11272;50.104;8.754;2023-02-01T04:33:53;8.50;;;4.10;;
22205;SDS011;11272;50.104;8.754;2023-02-01T04:36:19;8.40;;;4.53;;
22205;SDS011;11272;50.104;8.754;2023-02-01T04:38:47;9.27;;;3.93;;
22205;SDS011;11272;50.104;8.754;2023-02-01T04:41:14;10.23;;;4.10;;
22205;SDS011;11272;50.104;8.754;2023-02-01T04:43:42;7.83;;;4.53;;
22205;SDS011;11272;50.104;8.754;2023-02-01T04:46:07;7.50;;;4.20;;
22205;SDS011;11272;50.104;8.754;2023-02-01T04:48:33;8.57;;;4.33;;
22205;SDS011;11272;50.104;8.754;2023-02-01T04:50:58;11.73;;;4.13;;
22205;SDS011;11272;50.104;8.754;2023-02-01T04:53:24;7.00;;;3.83;;
22205;SDS011;11272;50.104;8.754;2023-02-01T04:55:49;7.20;;;4.00;;
22205;SDS011;11272;50.104;8.754;2023-02-01T04:58:15;10.83;;;4.80;;
22205;SDS011;11272;50.104;8.754;2023-02-01T05:00:41;7.80;;;3.83;;
22205;SDS011;11272;50.104;8.754;2023-02-01T05:03:06;10.03;;;4.57;;
22205;SDS011;11272;50.104;8.754;2023-02-01T05:05:32;7.87;;;4.47;;
22205;SDS011;11272;50.104;8.754;2023-02-01T05:07:58;10.60;;;3.93;;
22205;SDS011;11272;50.104;8.754;2023-02-01T05:10:23;8.90;;;4.00;;
22205;SDS011;11272;50.104;8.754;2023-02-01T05:12:49;9.70;;;4.73;;
22205;SDS011;11272;50.104;8.754;2023-02-01T05:15:33;9.00;;;4.57;;
22205;SDS011;11272;50.104;8.754;2023-02-01T05:17:59;7.97;;;4.33;;
22205;SDS011;11272;50.104;8.754;2023-02-01T05:20:24;6.40;;;2.73;;
22205;SDS011;11272;50.104;8.754;2023-02-01T05:22:50;6.83;;;2.20;;
22205;SDS011;11272;50.104;8.754;2023-02-01T05:25:16;9.40;;;3.50;;
22205;SDS011;11272;50.104;8.754;2023-02-01T05:27:42;8.33;;;3.63;;
22205;SDS011;11272;50.104;8.754;2023-02-01T05:30:07;9.67;;;3.33;;
22205;SDS011;11272;50.104;8.754;2023-02-01T05:32:34;11.47;;;3.87;;
22205;SDS011;11272;50.104;8.754;2023-02-01T05:35:01;10.50;;;3.30;;
22205;SDS011;11272;50.104;8.754;2023-02-01T05:37:27;9.07;;;3.73;;
22205;SDS011;11272;50.104;8.754;2023-02-01T05:39:53;6.07;;;3.60;;
22205;SDS011;11272;50.104;8.754;2023-02-01T05:42:18;10.07;;;3.20;;
22205;SDS011;11272;50.104;8.754;2023-02-01T05:44:44;11.57;;;3.57;;
22205;SDS011;11272;50.104;8.754;2023-02-01T05:47:09;8.23;;;3.70;;
22205;SDS011;11272;50.104;8.754;2023-02-01T05:49:35;6.70;;;2.33;;
22205;SDS011;11272;50.104;8.754;2023-02-01T05:52:01;7.90;;;3.00;;
22205;SDS011;11272;50.104;8.754;2023-02-01T05:54:27;8.03;;;3.10;;
22205;SDS011;11272;50.104;8.754;2023-02-01T05:56:53;8.87;;;2.90;;
22205;SDS011;11272;50.104;8.754;2023-02-01T05:59:18;14.47;;;3.53;;
22205;SDS011;11272;50.104;8.754;2023-02-01T06:01:45;9.53;;;3.60;;
22205;SDS011;11272;50.104;8.754;2023-02-01T06:04:11;5.00;;;2.83;;
22205;SDS011;11272;50.104;8.754;2023-02-01T06:06:36;5.17;;;2.80;;
22205;SDS011;11272;50.104;8.754;2023-02-01T06:09:02;10.47;;;3.37;;
22205;SDS011;11272;50.104;8.754;2023-02-01T06:11:28;7.63;;;3.10;;
22205;SDS011;11272;50.104;8.754;2023-02-01T06:13:54;7.90;;;3.00;;
22205;SDS011;11272;50.104;8.754;2023-02-01T06:16:20;8.30;;;3.00;;
22205;SDS011;11272;50.104;8.754;2023-02-01T06:18:47;7.23;;;2.87;;
22205;SDS011;11272;50.104;8.754;2023-02-01T06:21:12;9.47;;;2.83;;
22205;SDS011;11272;50.104;8.754;2023-02-01T06:23:39;6.73;;;2.83;;
22205;SDS011;11272;50.104;8.754;2023-02-01T06:26:05;9.50;;;2.83;;
22205;SDS011;11272;50.104;8.754;2023-02-01T06:28:35;6.90;;;2.90;;
22205;SDS011;11272;50.104;8.754;2023-02-01T06:31:04;9.70;;;3.07;;
22205;SDS011;11272;50.104;8.754;2023-02-01T06:33:34;9.07;;;2.50;;
22205;SDS011;11272;50.104;8.754;2023-02-01T06:36:00;6.40;;;2.97;;
22205;SDS011;11272;50.104;8.754;2023-02-01T06:38:28;6.13;;;2.13;;
22205;SDS011;11272;50.104;8.754;2023-02-01T06:40:55;9.57;;;2.43;;
22205;SDS011;11272;50.104;8.754;2023-02-01T06:43:22;8.03;;;2.77;;
22205;SDS011;11272;50.104;8.754;2023-02-01T06:45:49;15.07;;;2.90;;
22205;SDS011;11272;50.104;8.754;2023-02-01T06:48:15;12.90;;;3.07;;
22205;SDS011;11272;50.104;8.754;2023-02-01T06:50:41;7.33;;;2.40;;
22205;SDS011;11272;50.104;8.754;2023-02-01T06:53:07;10.53;;;3.33;;
22205;SDS011;11272;50.104;8.754;2023-02-01T06:55:32;11.47;;;3.20;;
22205;SDS011;11272;50.104;8.754;2023-02-01T06:57:58;7.17;;;2.43;;
22205;SDS011;11272;50.104;8.754;2023-02-01T07:00:23;7.40;;;2.43;;
22205;SDS011;11272;50.104;8.754;2023-02-01T07:02:50;9.80;;;2.97;;
22205;SDS011;11272;50.104;8.754;2023-02-01T07:05:16;9.67;;;2.37;;
22205;SDS011;11272;50.104;8.754;2023-02-01T07:07:42;8.70;;;2.87;;
22205;SDS011;11272;50.104;8.754;2023-02-01T07:10:08;5.77;;;2.50;;
22205;SDS011;11272;50.104;8.754;2023-02-01T07:12:35;11.10;;;2.80;;
22205;SDS011;11272;50.104;8.754;2023-02-01T07:15:01;5.53;;;2.10;;
22205;SDS011;11272;50.104;8.754;2023-02-01T07:17:27;13.63;;;2.30;;
22205;SDS011;11272;50.104;8.754;2023-02-01T07:19:54;8.80;;;2.60;;
22205;SDS011;11272;50.104;8.754;2023-02-01T07:22:26;3.50;;;1.63;;
22205;SDS011;11272;50.104;8.754;2023-02-01T07:24:52;8.80;;;2.40;;
22205;SDS011;11272;50.104;8.754;2023-02-01T07:27:18;6.87;;;2.27;;
22205;SDS011;11272;50.104;8.754;2023-02-01T07:29:46;6.90;;;2.80;;
22205;SDS011;11272;50.104;8.754;2023-02-01T07:32:11;14.37;;;2.77;;
22205;SDS011;11272;50.104;8.754;2023-02-01T07:34:37;6.30;;;2.23;;
22205;SDS011;11272;50.104;8.754;2023-02-01T07:37:02;5.57;;;2.30;;
22205;SDS011;11272;50.104;8.754;2023-02-01T07:39:28;5.90;;;2.10;;
22205;SDS011;11272;50.104;8.754;2023-02-01T07:41:57;6.27;;;2.20;;
22205;SDS011;11272;50.104;8.754;2023-02-01T07:44:23;11.27;;;2.40;;
22205;SDS011;11272;50.104;8.754;2023-02-01T07:46:49;10.33;;;2.80;;
22205;SDS011;11272;50.104;8.754;2023-02-01T07:49:15;10.30;;;2.90;;
22205;SDS011;11272;50.104;8.754;2023-02-01T07:51:42;15.07;;;2.67;;
22205;SDS011;11272;50.104;8.754;2023-02-01T07:54:08;12.13;;;2.23;;
22205;SDS011;11272;50.104;8.754;2023-02-01T07:56:33;7.17;;;2.37;;
22205;SDS011;11272;50.104;8.754;2023-02-01T07:58:59;14.00;;;3.13;;
22205;SDS011;11272;50.104;8.754;2023-02-01T08:01:26;7.03;;;2.23;;
22205;SDS011;11272;50.104;8.754;2023-02-01T08:03:54;9.20;;;2.57;;
22205;SDS011;11272;50.104;8.754;2023-02-01T08:06:24;9.20;;;2.83;;
22205;SDS011;11272;50.104;8.754;2023-02-01T08:08:52;15.97;;;2.80;;
22205;SDS011;11272;50.104;8.754;2023-02-01T08:11:18;6.17;;;2.30;;
22205;SDS011;11272;50.104;8.754;2023-02-01T08:13:46;9.10;;;2.10;;
22205;SDS011;11272;50.104;8.754;2023-02-01T08:16:13;13.20;;;2.37;;
22205;SDS011;11272;50.104;8.754;2023-02-01T08:18:40;9.30;;;2.17;;
22205;SDS011;11272;50.104;8.754;2023-02-01T08:21:08;7.27;;;2.17;;
22205;SDS011;11272;50.104;8.754;2023-02-01T08:23:36;12.77;;;2.63;;
22205;SDS011;11272;50.104;8.754;2023-02-01T08:26:07;17.00;;;2.90;;
22205;SDS011;11272;50.104;8.754;2023-02-01T08:28:46;10.03;;;2.43;;
22205;SDS011;11272;50.104;8.754;2023-02-01T08:31:15;7.00;;;2.20;;
22205;SDS011;11272;50.104;8.754;2023-02-01T08:33:43;11.83;;;2.23;;
22205;SDS011;11272;50.104;8.754;2023-02-01T08:36:12;11.20;;;2.60;;
22205;SDS011;11272;50.104;8.754;2023-02-01T08:38:38;12.67;;;2.50;;
22205;SDS011;11272;50.104;8.754;2023-02-01T08:41:09;3.67;;;1.57;;
22205;SDS011;11272;50.104;8.754;2023-02-01T08:43:36;10.03;;;2.47;;
22205;SDS011;11272;50.104;8.754;2023-02-01T08:46:02;10.63;;;2.87;;
22205;SDS011;11272;50.104;8.754;2023-02-01T08:48:29;10.00;;;2.13;;
22205;SDS011;11272;50.104;8.754;2023-02-01T08:50:54;7.43;;;2.20;;
22205;SDS011;11272;50.104;8.754;2023-02-01T08:53:20;8.67;;;2.13;;
22205;SDS011;11272;50.104;8.754;2023-02-01T08:55:46;14.27;;;2.87;;
22205;SDS011;11272;50.104;8.754;2023-02-01T08:58:12;10.87;;;2.57;;
22205;SDS011;11272;50.104;8.754;2023-02-01T09:00:40;10.43;;;2.63;;
22205;SDS011;11272;50.104;8.754;2023-02-01T09:03:07;5.93;;;1.70;;
22205;SDS011;11272;50.104;8.754;2023-02-01T09:05:35;10.63;;;2.60;;
22205;SDS011;11272;50.104;8.754;2023-02-01T09:08:01;12.00;;;2.47;;
22205;SDS011;11272;50.104;8.754;2023-02-01T09:10:26;9.00;;;2.30;;
22205;SDS011;11272;50.104;8.754;2023-02-01T09:12:52;11.53;;;2.60;;
22205;SDS011;11272;50.104;8.754;2023-02-01T09:15:17;18.00;;;2.60;;
22205;SDS011;11272;50.104;8.754;2023-02-01T09:17:43;11.33;;;2.10;;
22205;SDS011;11272;50.104;8.754;2023-02-01T09:20:09;9.70;;;2.20;;
22205;SDS011;11272;50.104;8.754;2023-02-01T09:22:35;8.97;;;2.27;;
22205;SDS011;11272;50.104;8.754;2023-02-01T09:25:00;13.90;;;2.93;;
22205;SDS011;11272;50.104;8.754;2023-02-01T09:27:26;10.33;;;2.27;;
22205;SDS011;11272;50.104;8.754;2023-02-01T09:29:51;10.20;;;2.23;;
22205;SDS011;11272;50.104;8.754;2023-02-01T09:32:21;14.60;;;2.87;;
22205;SDS011;11272;50.104;8.754;2023-02-01T09:34:51;12.10;;;2.10;;
22205;SDS011;11272;50.104;8.754;2023-02-01T09:37:18;6.90;;;2.00;;
22205;SDS011;11272;50.104;8.754;2023-02-01T09:39:44;13.63;;;2.03;;
22205;SDS011;11272;50.104;8.754;2023-02-01T09:42:19;7.83;;;2.43;;
22205;SDS011;11272;50.104;8.754;2023-02-01T09:45:00;13.97;;;2.40;;
22205;SDS011;11272;50.104;8.754;2023-02-01T09:47:35;7.77;;;2.93;;
22205;SDS011;11272;50.104;8.754;2023-02-01T09:50:12;12.63;;;2.30;;
22205;SDS011;11272;50.104;8.754;2023-02-01T09:52:48;9.10;;;2.20;;
22205;SDS011;11272;50.104;8.754;2023-02-01T09:55:43;9.77;;;2.07;;
22205;SDS011;11272;50.104;8.754;2023-02-01T10:00:50;11.13;;;2.30;;
22205;SDS011;11272;50.104;8.754;2023-02-01T10:03:18;5.83;;;2.20;;
22205;SDS011;11272;50.104;8.754;2023-02-01T10:11:28;9.10;;;2.00;;
22205;SDS011;11272;50.104;8.754;2023-02-01T10:17:08;8.23;;;2.20;;
22205;SDS011;11272;50.104;8.754;2023-02-01T10:22:37;6.67;;;1.93;;
22205;SDS011;11272;50.104;8.754;2023-02-01T10:27:57;10.90;;;2.30;;
22205;SDS011;11272;50.104;8.754;2023-02-01T10:30:27;14.13;;;2.50;;
22205;SDS011;11272;50.104;8.754;2023-02-01T10:33:16;11.93;;;2.10;;
22205;SDS011;11272;50.104;8.754;2023-02-01T10:35:44;8.77;;;2.40;;
22205;SDS011;11272;50.104;8.754;2023-02-01T10:38:44;10.53;;;2.53;;
22205;SDS011;11272;50.104;8.754;2023-02-01T10:41:04;11.37;;;2.00;;
22205;SDS011;11272;50.104;8.754;2023-02-01T10:43:37;13.70;;;2.60;;
22205;SDS011;11272;50.104;8.754;2023-02-01T10:46:04;10.30;;;2.20;;
22205;SDS011;11272;50.104;8.754;2023-02-01T10:48:31;8.27;;;2.03;;
22205;SDS011;11272;50.104;8.754;2023-02-01T10:51:00;7.67;;;2.17;;
22205;SDS011;11272;50.104;8.754;2023-02-01T10:56:08;7.20;;;1.97;;
22205;SDS011;11272;50.104;8.754;2023-02-01T10:58:36;8.93;;;2.00;;
22205;SDS011;11272;50.104;8.754;2023-02-01T11:01:09;7.83;;;2.07;;
22205;SDS011;11272;50.104;8.754;2023-02-01T11:03:58;12.03;;;1.83;;
22205;SDS011;11272;50.104;8.754;2023-02-01T11:06:30;17.10;;;2.13;;
22205;SDS011;11272;50.104;8.754;2023-02-01T11:11:33;11.60;;;2.63;;
22205;SDS011;11272;50.104;8.754;2023-02-01T11:16:54;10.60;;;2.20;;
22205;SDS011;11272;50.104;8.754;2023-02-01T11:19:22;7.70;;;2.13;;
22205;SDS011;11272;50.104;8.754;2023-02-01T11:21:51;5.87;;;1.60;;
22205;SDS011;11272;50.104;8.754;2023-02-01T11:24:22;4.43;;;1.40;;
22205;SDS011;11272;50.104;8.754;2023-02-01T11:26:49;8.70;;;1.90;;
22205;SDS011;11272;50.104;8.754;2023-02-01T11:29:18;10.23;;;2.27;;
22205;SDS011;11272;50.104;8.754;2023-02-01T11:37:41;10.13;;;2.00;;
22205;SDS011;11272;50.104;8.754;2023-02-01T11:42:53;9.80;;;2.03;;
22205;SDS011;11272;50.104;8.754;2023-02-01T11:45:28;20.67;;;2.33;;
22205;SDS011;11272;50.104;8.754;2023-02-01T11:47:56;3.53;;;1.40;;
22205;SDS011;11272;50.104;8.754;2023-02-01T11:50:46;8.30;;;2.00;;
22205;SDS011;11272;50.104;8.754;2023-02-01T11:53:20;9.00;;;2.00;;
22205;SDS011;11272;50.104;8.754;2023-02-01T12:01:39;6.90;;;1.83;;
22205;SDS011;11272;50.104;8.754;2023-02-01T12:06:54;9.80;;;2.10;;
22205;SDS011;11272;50.104;8.754;2023-02-01T12:12:18;7.37;;;1.80;;
22205;SDS011;11272;50.104;8.754;2023-02-01T12:18:01;10.40;;;2.17;;
22205;SDS011;11272;50.104;8.754;2023-02-01T12:32:03;10.57;;;2.00;;
22205;SDS011;11272;50.104;8.754;2023-02-01T12:37:39;11.13;;;2.00;;
22205;SDS011;11272;50.104;8.754;2023-02-01T12:40:21;12.73;;;2.03;;
22205;SDS011;11272;50.104;8.754;2023-02-01T12:43:09;10.77;;;1.97;;
22205;SDS011;11272;50.104;8.754;2023-02-01T12:45:49;12.13;;;1.93;;
22205;SDS011;11272;50.104;8.754;2023-02-01T12:48:31;6.63;;;1.67;;
22205;SDS011;11272;50.104;8.754;2023-02-01T12:51:07;8.80;;;1.60;;
22205;SDS011;11272;50.104;8.754;2023-02-01T12:53:48;15.43;;;2.90;;
22205;SDS011;11272;50.104;8.754;2023-02-01T12:56:31;11.53;;;2.33;;
22205;SDS011;11272;50.104;8.754;2023-02-01T12:58:59;10.27;;;2.23;;
22205;SDS011;11272;50.104;8.754;2023-02-01T13:01:44;8.27;;;1.73;;
22205;SDS011;11272;50.104;8.754;2023-02-01T13:07:36;9.77;;;2.20;;
22205;SDS011;11272;50.104;8.754;2023-02-01T13:10:13;15.47;;;2.17;;
22205;SDS011;11272;50.104;8.754;2023-02-01T13:12:47;11.90;;;2.30;;
22205;SDS011;11272;50.104;8.754;2023-02-01T13:15:28;14.50;;;2.33;;
22205;SDS011;11272;50.104;8.754;2023-02-01T13:18:02;12.47;;;2.23;;
22205;SDS011;11272;50.104;8.754;2023-02-01T13:20:31;6.87;;;1.70;;
22205;SDS011;11272;50.104;8.754;2023-02-01T13:23:01;13.73;;;2.20;;
22205;SDS011;11272;50.104;8.754;2023-02-01T13:28:16;10.53;;;2.00;;
22205;SDS011;11272;50.104;8.754;2023-02-01T13:33:59;12.60;;;2.00;;
22205;SDS011;11272;50.104;8.754;2023-02-01T13:42:50;9.90;;;2.27;;
22205;SDS011;11272;50.104;8.754;2023-02-01T13:45:23;6.37;;;1.60;;
22205;SDS011;11272;50.104;8.754;2023-02-01T13:47:55;8.50;;;2.10;;
22205;SDS011;11272;50.104;8.754;2023-02-01T13:50:28;16.53;;;1.90;;
22205;SDS011;11272;50.104;8.754;2023-02-01T13:52:57;7.20;;;2.03;;
22205;SDS011;11272;50.104;8.754;2023-02-01T13:58:01;10.27;;;2.07;;
22205;SDS011;11272;50.104;8.754;2023-02-01T14:00:34;7.17;;;1.70;;
22205;SDS011;11272;50.104;8.754;2023-02-01T14:03:06;16.87;;;2.30;;
22205;SDS011;11272;50.104;8.754;2023-02-01T14:11:06;11.20;;;1.90;;
22205;SDS011;11272;50.104;8.754;2023-02-01T14:27:13;10.80;;;2.00;;
22205;SDS011;11272;50.104;8.754;2023-02-01T14:32:07;10.57;;;1.57;;
22205;SDS011;11272;50.104;8.754;2023-02-01T14:47:50;4.93;;;1.53;;
22205;SDS011;11272;50.104;8.754;2023-02-01T14:50:40;12.53;;;2.50;;
22205;SDS011;11272;50.104;8.754;2023-02-01T15:00:58;5.93;;;1.70;;
22205;SDS011;11272;50.104;8.754;2023-02-01T15:06:24;8.77;;;1.80;;
22205;SDS011;11272;50.104;8.754;2023-02-01T15:14:19;11.00;;;2.20;;
22205;SDS011;11272;50.104;8.754;2023-02-01T15:16:45;8.10;;;1.57;;
22205;SDS011;11272;50.104;8.754;2023-02-01T15:19:19;9.43;;;1.93;;
22205;SDS011;11272;50.104;8.754;2023-02-01T15:21:48;6.40;;;1.23;;
22205;SDS011;11272;50.104;8.754;2023-02-01T15:24:21;9.60;;;1.60;;
22205;SDS011;11272;50.104;8.754;2023-02-01T15:26:49;12.83;;;2.10;;
22205;SDS011;11272;50.104;8.754;2023-02-01T15:29:16;8.83;;;1.73;;
22205;SDS011;11272;50.104;8.754;2023-02-01T15:31:44;10.73;;;1.70;;
22205;SDS011;11272;50.104;8.754;2023-02-01T15:34:11;6.43;;;1.70;;
22205;SDS011;11272;50.104;8.754;2023-02-01T15:36:38;5.13;;;1.40;;
22205;SDS011;11272;50.104;8.754;2023-02-01T15:41:52;7.47;;;1.77;;
22205;SDS011;11272;50.104;8.754;2023-02-01T15:44:24;6.13;;;1.50;;
22205;SDS011;11272;50.104;8.754;2023-02-01T15:46:55;9.80;;;1.83;;
22205;SDS011;11272;50.104;8.754;2023-02-01T15:51:55;5.77;;;1.60;;
22205;SDS011;11272;50.104;8.754;2023-02-01T15:54:28;5.47;;;1.40;;
22205;SDS011;11272;50.104;8.754;2023-02-01T15:56:57;8.13;;;2.10;;
22205;SDS011;11272;50.104;8.754;2023-02-01T15:59:32;6.47;;;1.43;;
22205;SDS011;11272;50.104;8.754;2023-02-01T16:02:23;9.97;;;2.07;;
22205;SDS011;11272;50.104;8.754;2023-02-01T16:04:53;12.20;;;2.13;;
22205;SDS011;11272;50.104;8.754;2023-02-01T16:07:27;9.23;;;1.97;;
22205;SDS011;11272;50.104;8.754;2023-02-01T16:09:56;7.87;;;1.77;;
22205;SDS011;11272;50.104;8.754;2023-02-01T16:14:59;11.37;;;2.40;;
22205;SDS011;11272;50.104;8.754;2023-02-01T16:17:24;6.23;;;1.87;;
22205;SDS011;11272;50.104;8.754;2023-02-01T16:19:50;9.63;;;2.60;;
22205;SDS011;11272;50.104;8.754;2023-02-01T16:22:15;8.47;;;1.50;;
22205;SDS011;11272;50.104;8.754;2023-02-01T16:24:41;8.23;;;1.43;;
22205;SDS011;11272;50.104;8.754;2023-02-01T16:27:07;6.80;;;1.57;;
22205;SDS011;11272;50.104;8.754;2023-02-01T16:29:32;10.43;;;1.70;;
22205;SDS011;11272;50.104;8.754;2023-02-01T16:31:58;8.87;;;1.87;;
22205;SDS011;11272;50.104;8.754;2023-02-01T16:34:25;7.23;;;1.80;;
22205;SDS011;11272;50.104;8.754;2023-02-01T16:36:50;5.80;;;1.30;;
22205;SDS011;11272;50.104;8.754;2023-02-01T16:39:23;4.93;;;1.30;;
22205;SDS011;11272;50.104;8.754;2023-02-01T16:41:51;4.37;;;1.53;;
22205;SDS011;11272;50.104;8.754;2023-02-01T16:44:16;5.37;;;1.23;;
22205;SDS011;11272;50.104;8.754;2023-02-01T16:46:43;4.63;;;1.40;;
22205;SDS011;11272;50.104;8.754;2023-02-01T16:49:21;8.07;;;1.63;;
22205;SDS011;11272;50.104;8.754;2023-02-01T16:51:49;8.00;;;1.63;;
22205;SDS011;11272;50.104;8.754;2023-02-01T16:54:19;6.07;;;1.60;;
22205;SDS011;11272;50.104;8.754;2023-02-01T16:56:45;5.73;;;1.70;;
22205;SDS011;11272;50.104;8.754;2023-02-01T16:59:12;12.23;;;1.70;;
22205;SDS011;11272;50.104;8.754;2023-02-01T17:01:40;7.77;;;1.80;;
22205;SDS011;11272;50.104;8.754;2023-02-01T17:04:08;10.00;;;1.80;;
22205;SDS011;11272;50.104;8.754;2023-02-01T17:06:34;7.10;;;1.70;;
22205;SDS011;11272;50.104;8.754;2023-02-01T17:09:04;10.23;;;1.80;;
22205;SDS011;11272;50.104;8.754;2023-02-01T17:11:30;5.63;;;1.57;;
22205;SDS011;11272;50.104;8.754;2023-02-01T17:14:07;5.77;;;1.40;;
22205;SDS011;11272;50.104;8.754;2023-02-01T17:16:40;8.73;;;1.40;;
22205;SDS011;11272;50.104;8.754;2023-02-01T17:19:10;9.87;;;1.90;;
22205;SDS011;11272;50.104;8.754;2023-02-01T17:21:43;5.87;;;1.57;;
22205;SDS011;11272;50.104;8.754;2023-02-01T17:24:12;13.63;;;1.90;;
22205;SDS011;11272;50.104;8.754;2023-02-01T17:26:39;16.80;;;4.20;;
22205;SDS011;11272;50.104;8.754;2023-02-01T17:29:06;5.37;;;1.60;;
22205;SDS011;11272;50.104;8.754;2023-02-01T17:31:32;7.30;;;1.47;;
22205;SDS011;11272;50.104;8.754;2023-02-01T17:34:02;9.60;;;2.33;;
22205;SDS011;11272;50.104;8.754;2023-02-01T17:36:27;4.97;;;1.60;;
22205;SDS011;11272;50.104;8.754;2023-02-01T17:38:53;7.70;;;1.70;;
22205;SDS011;11272;50.104;8.754;2023-02-01T17:41:18;7.13;;;2.17;;
22205;SDS011;11272;50.104;8.754;2023-02-01T17:43:44;6.07;;;1.33;;
22205;SDS011;11272;50.104;8.754;2023-02-01T17:46:11;6.93;;;1.53;;
22205;SDS011;11272;50.104;8.754;2023-02-01T17:48:44;11.00;;;1.83;;
22205;SDS011;11272;50.104;8.754;2023-02-01T17:51:14;8.17;;;2.17;;
22205;SDS011;11272;50.104;8.754;2023-02-01T17:53:42;7.67;;;1.93;;
22205;SDS011;11272;50.104;8.754;2023-02-01T17:56:14;7.20;;;1.47;;
22205;SDS011;11272;50.104;8.754;2023-02-01T17:58:43;10.37;;;1.60;;
22205;SDS011;11272;50.104;8.754;2023-02-01T18:01:13;5.73;;;1.70;;